sensor_id;sensor_type;location;lat;lon;timestamp;P1;durP1;ratioP1;P2;durP2;ratioP2
5961;SDS011;3007;50.770;0.250;2023-02-04T00:01:46;6.00;;;1.83;;
5961;SDS011;3007;50.770;0.250;2023-02-04T00:04:13;6.73;;;1.90;;
5961;SDS011;3007;50.770;0.250;2023-02-04T00:06:42;8.50;;;2.27;;
5961;SDS011;3007;50.770;0.250;2023-02-04T00:09:09;8.57;;;2.60;;
5961;SDS011;3007;50.770;0.250;2023-02-04T00:11:36;4.03;;;2.00;;
5961;SDS011;3007;50.770;0.250;2023-02-04T00:14:03;6.27;;;2.10;;
5961;SDS011;3007;50.770;0.250;2023-02-04T00:16:30;3.87;;;2.20;;
5961;SDS011;3007;50.770;0.250;2023-02-04T00:18:57;5.67;;;1.83;;
5961;SDS011;3007;50.770;0.250;2023-02-04T00:21:24;6.80;;;2.17;;
5961;SDS011;3007;50.770;0.250;2023-02-04T00:23:52;7.00;;;2.10;;
5961;SDS011;3007;50.770;0.250;2023-02-04T00:26:19;3.93;;;2.20;;
5961;SDS011;3007;50.770;0.250;2023-02-04T00:28:46;4.37;;;1.90;;
5961;SDS011;3007;50.770;0.250;2023-02-04T00:31:13;6.13;;;2.43;;
5961;SDS011;3007;50.770;0.250;2023-02-04T00:33:40;4.33;;;2.17;;
5961;SDS011;3007;50.770;0.250;2023-02-04T00:36:08;7.67;;;2.50;;
5961;SDS011;3007;50.770;0.250;2023-02-04T00:38:35;7.37;;;2.10;;
5961;SDS011;3007;50.770;0.250;2023-02-04T00:41:03;6.93;;;2.13;;
5961;SDS011;3007;50.770;0.250;2023-02-04T00:43:31;3.97;;;2.23;;
5961;SDS011;3007;50.770;0.250;2023-02-04T00:45:57;7.60;;;2.37;;
5961;SDS011;3007;50.770;0.250;2023-02-04T00:48:24;5.77;;;2.57;;
5961;SDS011;3007;50.770;0.250;2023-02-04T00:50:51;5.23;;;2.23;;
5961;SDS011;3007;50.770;0.250;2023-02-04T00:53:18;5.13;;;2.40;;
5961;SDS011;3007;50.770;0.250;2023-02-04T00:55:45;4.27;;;2.37;;
5961;SDS011;3007;50.770;0.250;2023-02-04T00:58:14;3.93;;;2.30;;
5961;SDS011;3007;50.770;0.250;2023-02-04T01:00:40;2.60;;;1.83;;
5961;SDS011;3007;50.770;0.250;2023-02-04T01:03:07;4.33;;;2.27;;
5961;SDS011;3007;50.770;0.250;2023-02-04T01:05:34;4.17;;;2.17;;
5961;SDS011;3007;50.770;0.250;2023-02-04T01:08:01;3.20;;;1.80;;
5961;SDS011;3007;50.770;0.250;2023-02-04T01:10:28;5.13;;;2.17;;
5961;SDS011;3007;50.770;0.250;2023-02-04T01:12:55;7.37;;;2.33;;
5961;SDS011;3007;50.770;0.250;2023-02-04T01:15:23;11.07;;;2.63;;
5961;SDS011;3007;50.770;0.250;2023-02-04T01:17:50;6.70;;;2.00;;
5961;SDS011;3007;50.770;0.250;2023-02-04T01:20:17;6.40;;;1.97;;
5961;SDS011;3007;50.770;0.250;2023-02-04T01:22:45;7.07;;;2.30;;
5961;SDS011;3007;50.770;0.250;2023-02-04T01:25:12;3.23;;;1.87;;
5961;SDS011;3007;50.770;0.250;2023-02-04T01:27:39;3.93;;;2.10;;
5961;SDS011;3007;50.770;0.250;2023-02-04T01:30:06;3.27;;;1.80;;
5961;SDS011;3007;50.770;0.250;2023-02-04T01:32:35;5.50;;;1.90;;
5961;SDS011;3007;50.770;0.250;2023-02-04T01:35:02;4.33;;;1.67;;
5961;SDS011;3007;50.770;0.250;2023-02-04T01:37:30;5.90;;;1.43;;
5961;SDS011;3007;50.770;0.250;2023-02-04T01:39:57;5.77;;;2.20;;
5961;SDS011;3007;50.770;0.250;2023-02-04T01:42:24;2.73;;;1.60;;
5961;SDS011;3007;50.770;0.250;2023-02-04T01:44:51;4.50;;;2.60;;
5961;SDS011;3007;50.770;0.250;2023-02-04T01:47:18;2.37;;;1.40;;
5961;SDS011;3007;50.770;0.250;2023-02-04T01:49:49;4.90;;;2.13;;
5961;SDS011;3007;50.770;0.250;2023-02-04T01:52:18;5.23;;;1.90;;
5961;SDS011;3007;50.770;0.250;2023-02-04T01:54:45;4.27;;;1.97;;
5961;SDS011;3007;50.770;0.250;2023-02-04T01:57:12;5.53;;;1.87;;
5961;SDS011;3007;50.770;0.250;2023-02-04T01:59:42;2.80;;;1.40;;
5961;SDS011;3007;50.770;0.250;2023-02-04T02:05:12;2.53;;;1.53;;
5961;SDS011;3007;50.770;0.250;2023-02-04T02:07:41;2.40;;;1.57;;
5961;SDS011;3007;50.770;0.250;2023-02-04T02:10:09;4.70;;;1.60;;
5961;SDS011;3007;50.770;0.250;2023-02-04T02:12:37;3.07;;;1.40;;
5961;SDS011;3007;50.770;0.250;2023-02-04T02:15:05;3.83;;;1.70;;
5961;SDS011;3007;50.770;0.250;2023-02-04T02:17:33;3.07;;;1.23;;
5961;SDS011;3007;50.770;0.250;2023-02-04T02:20:00;4.20;;;1.90;;
5961;SDS011;3007;50.770;0.250;2023-02-04T02:22:34;5.17;;;1.90;;
5961;SDS011;3007;50.770;0.250;2023-02-04T02:25:10;6.17;;;1.50;;
5961;SDS011;3007;50.770;0.250;2023-02-04T02:27:38;1.73;;;1.40;;
5961;SDS011;3007;50.770;0.250;2023-02-04T02:30:06;6.00;;;1.63;;
5961;SDS011;3007;50.770;0.250;2023-02-04T02:32:35;5.47;;;2.00;;
5961;SDS011;3007;50.770;0.250;2023-02-04T02:35:03;9.73;;;4.40;;
5961;SDS011;3007;50.770;0.250;2023-02-04T02:37:31;2.83;;;1.47;;
5961;SDS011;3007;50.770;0.250;2023-02-04T02:39:58;7.63;;;1.80;;
5961;SDS011;3007;50.770;0.250;2023-02-04T02:42:26;4.37;;;1.53;;
5961;SDS011;3007;50.770;0.250;2023-02-04T02:44:55;2.43;;;1.43;;
5961;SDS011;3007;50.770;0.250;2023-02-04T02:47:23;4.30;;;1.77;;
5961;SDS011;3007;50.770;0.250;2023-02-04T02:49:51;4.33;;;1.73;;
5961;SDS011;3007;50.770;0.250;2023-02-04T02:52:19;2.40;;;1.37;;
5961;SDS011;3007;50.770;0.250;2023-02-04T02:54:47;2.17;;;1.20;;
5961;SDS011;3007;50.770;0.250;2023-02-04T02:57:15;3.37;;;1.40;;
5961;SDS011;3007;50.770;0.250;2023-02-04T02:59:45;2.07;;;1.50;;
5961;SDS011;3007;50.770;0.250;2023-02-04T03:02:13;4.27;;;1.67;;
5961;SDS011;3007;50.770;0.250;2023-02-04T03:04:44;2.90;;;1.50;;
5961;SDS011;3007;50.770;0.250;2023-02-04T03:07:15;4.17;;;1.83;;
5961;SDS011;3007;50.770;0.250;2023-02-04T03:09:43;4.17;;;2.50;;
5961;SDS011;3007;50.770;0.250;2023-02-04T03:12:10;6.33;;;2.10;;
5961;SDS011;3007;50.770;0.250;2023-02-04T03:14:37;4.17;;;1.50;;
5961;SDS011;3007;50.770;0.250;2023-02-04T03:17:06;3.50;;;1.57;;
5961;SDS011;3007;50.770;0.250;2023-02-04T03:19:34;3.17;;;1.57;;
5961;SDS011;3007;50.770;0.250;2023-02-04T03:22:02;6.70;;;1.60;;
5961;SDS011;3007;50.770;0.250;2023-02-04T03:24:33;3.70;;;1.40;;
5961;SDS011;3007;50.770;0.250;2023-02-04T03:27:01;3.63;;;1.37;;
5961;SDS011;3007;50.770;0.250;2023-02-04T03:29:29;4.77;;;1.77;;
5961;SDS011;3007;50.770;0.250;2023-02-04T03:31:55;2.23;;;1.53;;
5961;SDS011;3007;50.770;0.250;2023-02-04T03:34:25;5.30;;;2.10;;
5961;SDS011;3007;50.770;0.250;2023-02-04T03:36:52;3.13;;;1.77;;
5961;SDS011;3007;50.770;0.250;2023-02-04T03:39:19;4.50;;;1.87;;
5961;SDS011;3007;50.770;0.250;2023-02-04T03:41:46;4.40;;;1.70;;
5961;SDS011;3007;50.770;0.250;2023-02-04T03:44:13;7.43;;;2.20;;
5961;SDS011;3007;50.770;0.250;2023-02-04T03:46:40;5.40;;;2.83;;
5961;SDS011;3007;50.770;0.250;2023-02-04T03:49:06;5.53;;;1.90;;
5961;SDS011;3007;50.770;0.250;2023-02-04T03:51:35;2.77;;;1.83;;
5961;SDS011;3007;50.770;0.250;2023-02-04T03:54:02;3.23;;;2.13;;
5961;SDS011;3007;50.770;0.250;2023-02-04T03:56:29;7.20;;;2.30;;
5961;SDS011;3007;50.770;0.250;2023-02-04T03:58:55;3.90;;;2.33;;
5961;SDS011;3007;50.770;0.250;2023-02-04T04:01:22;3.63;;;2.40;;
5961;SDS011;3007;50.770;0.250;2023-02-04T04:03:49;4.67;;;2.47;;
5961;SDS011;3007;50.770;0.250;2023-02-04T04:06:16;5.53;;;3.00;;
5961;SDS011;3007;50.770;0.250;2023-02-04T04:08:44;6.60;;;3.33;;
5961;SDS011;3007;50.770;0.250;2023-02-04T04:11:11;3.30;;;2.93;;
5961;SDS011;3007;50.770;0.250;2023-02-04T04:13:38;6.33;;;2.77;;
5961;SDS011;3007;50.770;0.250;2023-02-04T04:16:05;4.57;;;2.70;;
5961;SDS011;3007;50.770;0.250;2023-02-04T04:18:33;4.53;;;2.53;;
5961;SDS011;3007;50.770;0.250;2023-02-04T04:21:00;3.00;;;2.57;;
5961;SDS011;3007;50.770;0.250;2023-02-04T04:23:27;5.90;;;3.03;;
5961;SDS011;3007;50.770;0.250;2023-02-04T04:25:55;7.00;;;3.07;;
5961;SDS011;3007;50.770;0.250;2023-02-04T04:28:22;5.43;;;2.93;;
5961;SDS011;3007;50.770;0.250;2023-02-04T04:30:49;3.10;;;2.13;;
5961;SDS011;3007;50.770;0.250;2023-02-04T04:33:15;5.17;;;2.90;;
5961;SDS011;3007;50.770;0.250;2023-02-04T04:35:42;2.57;;;2.37;;
5961;SDS011;3007;50.770;0.250;2023-02-04T04:38:09;4.87;;;3.20;;
5961;SDS011;3007;50.770;0.250;2023-02-04T04:40:36;7.20;;;3.30;;
5961;SDS011;3007;50.770;0.250;2023-02-04T04:43:04;6.87;;;2.93;;
5961;SDS011;3007;50.770;0.250;2023-02-04T04:45:31;4.10;;;2.93;;
5961;SDS011;3007;50.770;0.250;2023-02-04T04:47:58;5.33;;;3.10;;
5961;SDS011;3007;50.770;0.250;2023-02-04T04:50:25;4.23;;;2.80;;
5961;SDS011;3007;50.770;0.250;2023-02-04T04:52:52;4.60;;;2.40;;
5961;SDS011;3007;50.770;0.250;2023-02-04T04:55:19;5.50;;;3.20;;
5961;SDS011;3007;50.770;0.250;2023-02-04T04:57:46;8.10;;;2.87;;
5961;SDS011;3007;50.770;0.250;2023-02-04T05:00:15;3.07;;;2.30;;
5961;SDS011;3007;50.770;0.250;2023-02-04T05:02:44;6.13;;;2.90;;
5961;SDS011;3007;50.770;0.250;2023-02-04T05:05:11;3.57;;;2.80;;
5961;SDS011;3007;50.770;0.250;2023-02-04T05:07:38;9.00;;;2.63;;
5961;SDS011;3007;50.770;0.250;2023-02-04T05:10:05;4.37;;;2.70;;
5961;SDS011;3007;50.770;0.250;2023-02-04T05:12:33;3.57;;;2.73;;
5961;SDS011;3007;50.770;0.250;2023-02-04T05:14:59;5.20;;;2.80;;
5961;SDS011;3007;50.770;0.250;2023-02-04T05:17:28;6.10;;;2.70;;
5961;SDS011;3007;50.770;0.250;2023-02-04T05:19:54;5.07;;;3.00;;
5961;SDS011;3007;50.770;0.250;2023-02-04T05:22:21;7.40;;;2.73;;
5961;SDS011;3007;50.770;0.250;2023-02-04T05:24:48;4.33;;;2.80;;
5961;SDS011;3007;50.770;0.250;2023-02-04T05:27:15;4.50;;;3.00;;
5961;SDS011;3007;50.770;0.250;2023-02-04T05:29:42;3.53;;;2.67;;
5961;SDS011;3007;50.770;0.250;2023-02-04T05:32:09;3.67;;;3.07;;
5961;SDS011;3007;50.770;0.250;2023-02-04T05:34:37;6.23;;;3.10;;
5961;SDS011;3007;50.770;0.250;2023-02-04T05:37:06;6.40;;;3.10;;
5961;SDS011;3007;50.770;0.250;2023-02-04T05:39:33;4.40;;;3.57;;
5961;SDS011;3007;50.770;0.250;2023-02-04T05:42:00;4.97;;;3.70;;
5961;SDS011;3007;50.770;0.250;2023-02-04T05:44:27;5.67;;;3.30;;
5961;SDS011;3007;50.770;0.250;2023-02-04T05:46:54;5.70;;;3.80;;
5961;SDS011;3007;50.770;0.250;2023-02-04T05:49:20;6.67;;;4.20;;
5961;SDS011;3007;50.770;0.250;2023-02-04T05:51:50;4.47;;;3.80;;
5961;SDS011;3007;50.770;0.250;2023-02-04T05:54:17;7.47;;;4.37;;
5961;SDS011;3007;50.770;0.250;2023-02-04T05:56:45;6.67;;;3.97;;
5961;SDS011;3007;50.770;0.250;2023-02-04T05:59:12;7.30;;;3.83;;
5961;SDS011;3007;50.770;0.250;2023-02-04T06:01:38;5.37;;;3.90;;
5961;SDS011;3007;50.770;0.250;2023-02-04T06:04:06;5.83;;;3.27;;
5961;SDS011;3007;50.770;0.250;2023-02-04T06:06:33;4.40;;;3.60;;
5961;SDS011;3007;50.770;0.250;2023-02-04T06:09:01;5.73;;;3.53;;
5961;SDS011;3007;50.770;0.250;2023-02-04T06:11:28;6.30;;;3.67;;
5961;SDS011;3007;50.770;0.250;2023-02-04T06:13:55;4.00;;;3.60;;
5961;SDS011;3007;50.770;0.250;2023-02-04T06:16:22;3.80;;;3.20;;
5961;SDS011;3007;50.770;0.250;2023-02-04T06:18:49;5.93;;;4.20;;
5961;SDS011;3007;50.770;0.250;2023-02-04T06:21:16;4.73;;;3.97;;
5961;SDS011;3007;50.770;0.250;2023-02-04T06:23:43;5.63;;;4.10;;
5961;SDS011;3007;50.770;0.250;2023-02-04T06:26:11;7.43;;;4.30;;
5961;SDS011;3007;50.770;0.250;2023-02-04T06:28:38;7.07;;;4.03;;
5961;SDS011;3007;50.770;0.250;2023-02-04T06:31:05;6.63;;;4.43;;
5961;SDS011;3007;50.770;0.250;2023-02-04T06:33:33;5.53;;;3.87;;
5961;SDS011;3007;50.770;0.250;2023-02-04T06:36:00;4.27;;;3.70;;
5961;SDS011;3007;50.770;0.250;2023-02-04T06:38:27;6.10;;;3.90;;
5961;SDS011;3007;50.770;0.250;2023-02-04T06:40:54;5.47;;;3.97;;
5961;SDS011;3007;50.770;0.250;2023-02-04T06:43:23;4.80;;;4.30;;
5961;SDS011;3007;50.770;0.250;2023-02-04T06:45:51;7.10;;;4.10;;
5961;SDS011;3007;50.770;0.250;2023-02-04T06:48:18;5.77;;;4.80;;
5961;SDS011;3007;50.770;0.250;2023-02-04T06:50:45;4.47;;;3.80;;
5961;SDS011;3007;50.770;0.250;2023-02-04T06:53:12;7.27;;;4.50;;
5961;SDS011;3007;50.770;0.250;2023-02-04T06:55:39;6.07;;;4.40;;
5961;SDS011;3007;50.770;0.250;2023-02-04T06:58:06;5.90;;;3.97;;
5961;SDS011;3007;50.770;0.250;2023-02-04T07:00:35;5.40;;;4.23;;
5961;SDS011;3007;50.770;0.250;2023-02-04T07:03:02;4.30;;;3.83;;
5961;SDS011;3007;50.770;0.250;2023-02-04T07:05:31;7.13;;;4.27;;
5961;SDS011;3007;50.770;0.250;2023-02-04T07:07:58;4.27;;;3.87;;
5961;SDS011;3007;50.770;0.250;2023-02-04T07:10:25;5.17;;;3.60;;
5961;SDS011;3007;50.770;0.250;2023-02-04T07:12:52;5.97;;;3.80;;
5961;SDS011;3007;50.770;0.250;2023-02-04T07:15:20;6.13;;;3.97;;
5961;SDS011;3007;50.770;0.250;2023-02-04T07:17:48;4.93;;;3.30;;
5961;SDS011;3007;50.770;0.250;2023-02-04T07:20:15;4.77;;;3.87;;
5961;SDS011;3007;50.770;0.250;2023-02-04T07:22:43;3.93;;;3.53;;
5961;SDS011;3007;50.770;0.250;2023-02-04T07:25:10;5.57;;;3.47;;
5961;SDS011;3007;50.770;0.250;2023-02-04T07:27:39;3.90;;;3.50;;
5961;SDS011;3007;50.770;0.250;2023-02-04T07:30:06;4.27;;;3.60;;
5961;SDS011;3007;50.770;0.250;2023-02-04T07:32:34;4.00;;;3.60;;
5961;SDS011;3007;50.770;0.250;2023-02-04T07:35:03;5.00;;;4.00;;
5961;SDS011;3007;50.770;0.250;2023-02-04T07:37:30;6.60;;;3.67;;
5961;SDS011;3007;50.770;0.250;2023-02-04T07:39:57;4.80;;;3.60;;
5961;SDS011;3007;50.770;0.250;2023-02-04T07:42:24;3.70;;;3.07;;
5961;SDS011;3007;50.770;0.250;2023-02-04T07:44:51;4.47;;;2.83;;
5961;SDS011;3007;50.770;0.250;2023-02-04T07:47:18;5.33;;;3.83;;
5961;SDS011;3007;50.770;0.250;2023-02-04T07:49:45;3.87;;;2.80;;
5961;SDS011;3007;50.770;0.250;2023-02-04T07:52:13;5.00;;;3.93;;
5961;SDS011;3007;50.770;0.250;2023-02-04T07:54:40;5.03;;;3.80;;
5961;SDS011;3007;50.770;0.250;2023-02-04T07:57:07;4.03;;;3.00;;
5961;SDS011;3007;50.770;0.250;2023-02-04T07:59:34;5.50;;;3.40;;
5961;SDS011;3007;50.770;0.250;2023-02-04T08:02:01;5.10;;;2.70;;
5961;SDS011;3007;50.770;0.250;2023-02-04T08:04:28;5.33;;;2.57;;
5961;SDS011;3007;50.770;0.250;2023-02-04T08:06:55;3.50;;;2.93;;
5961;SDS011;3007;50.770;0.250;2023-02-04T08:09:23;3.33;;;2.97;;
5961;SDS011;3007;50.770;0.250;2023-02-04T08:11:51;4.63;;;2.57;;
5961;SDS011;3007;50.770;0.250;2023-02-04T08:14:20;6.40;;;2.60;;
5961;SDS011;3007;50.770;0.250;2023-02-04T08:16:47;4.50;;;2.50;;
5961;SDS011;3007;50.770;0.250;2023-02-04T08:19:14;3.13;;;2.17;;
5961;SDS011;3007;50.770;0.250;2023-02-04T08:21:44;6.37;;;1.93;;
5961;SDS011;3007;50.770;0.250;2023-02-04T08:24:11;2.73;;;2.20;;
5961;SDS011;3007;50.770;0.250;2023-02-04T08:26:40;1.93;;;1.70;;
5961;SDS011;3007;50.770;0.250;2023-02-04T08:29:08;2.70;;;2.00;;
5961;SDS011;3007;50.770;0.250;2023-02-04T08:31:35;3.53;;;2.07;;
5961;SDS011;3007;50.770;0.250;2023-02-04T08:34:02;2.43;;;2.00;;
5961;SDS011;3007;50.770;0.250;2023-02-04T08:36:30;2.87;;;2.20;;
5961;SDS011;3007;50.770;0.250;2023-02-04T08:38:57;2.87;;;1.73;;
5961;SDS011;3007;50.770;0.250;2023-02-04T08:41:24;3.43;;;1.83;;
5961;SDS011;3007;50.770;0.250;2023-02-04T08:43:53;2.47;;;1.87;;
5961;SDS011;3007;50.770;0.250;2023-02-04T08:46:20;2.13;;;1.57;;
5961;SDS011;3007;50.770;0.250;2023-02-04T08:48:47;2.90;;;1.70;;
5961;SDS011;3007;50.770;0.250;2023-02-04T08:51:14;2.93;;;1.60;;
5961;SDS011;3007;50.770;0.250;2023-02-04T08:53:41;1.67;;;1.57;;
5961;SDS011;3007;50.770;0.250;2023-02-04T08:56:08;1.40;;;1.30;;
5961;SDS011;3007;50.770;0.250;2023-02-04T08:58:39;1.37;;;1.27;;
5961;SDS011;3007;50.770;0.250;2023-02-04T09:01:08;1.70;;;1.30;;
5961;SDS011;3007;50.770;0.250;2023-02-04T09:03:35;1.63;;;1.40;;
5961;SDS011;3007;50.770;0.250;2023-02-04T09:06:02;1.63;;;1.20;;
5961;SDS011;3007;50.770;0.250;2023-02-04T09:08:30;1.47;;;1.37;;
5961;SDS011;3007;50.770;0.250;2023-02-04T09:10:57;2.67;;;1.70;;
5961;SDS011;3007;50.770;0.250;2023-02-04T09:13:24;3.10;;;1.30;;
5961;SDS011;3007;50.770;0.250;2023-02-04T09:15:51;1.90;;;1.50;;
5961;SDS011;3007;50.770;0.250;2023-02-04T09:18:19;1.43;;;1.33;;
5961;SDS011;3007;50.770;0.250;2023-02-04T09:20:48;2.90;;;1.20;;
5961;SDS011;3007;50.770;0.250;2023-02-04T09:23:16;1.43;;;1.20;;
5961;SDS011;3007;50.770;0.250;2023-02-04T09:25:43;1.37;;;1.17;;
5961;SDS011;3007;50.770;0.250;2023-02-04T09:28:11;2.20;;;1.27;;
5961;SDS011;3007;50.770;0.250;2023-02-04T09:30:41;2.00;;;1.40;;
5961;SDS011;3007;50.770;0.250;2023-02-04T09:33:10;1.33;;;1.23;;
5961;SDS011;3007;50.770;0.250;2023-02-04T09:35:39;3.40;;;1.30;;
5961;SDS011;3007;50.770;0.250;2023-02-04T09:38:06;1.57;;;1.47;;
5961;SDS011;3007;50.770;0.250;2023-02-04T09:40:35;4.27;;;1.43;;
5961;SDS011;3007;50.770;0.250;2023-02-04T09:43:06;2.13;;;1.43;;
5961;SDS011;3007;50.770;0.250;2023-02-04T09:45:37;2.20;;;1.80;;
5961;SDS011;3007;50.770;0.250;2023-02-04T09:48:04;2.63;;;1.67;;
5961;SDS011;3007;50.770;0.250;2023-02-04T09:50:32;3.73;;;1.80;;
5961;SDS011;3007;50.770;0.250;2023-02-04T09:53:01;4.37;;;2.00;;
5961;SDS011;3007;50.770;0.250;2023-02-04T09:55:32;2.70;;;1.77;;
5961;SDS011;3007;50.770;0.250;2023-02-04T09:58:00;3.40;;;2.10;;
5961;SDS011;3007;50.770;0.250;2023-02-04T10:00:28;3.37;;;1.80;;
5961;SDS011;3007;50.770;0.250;2023-02-04T10:02:56;2.83;;;1.80;;
5961;SDS011;3007;50.770;0.250;2023-02-04T10:05:26;1.60;;;1.50;;
5961;SDS011;3007;50.770;0.250;2023-02-04T10:07:55;1.97;;;1.20;;
5961;SDS011;3007;50.770;0.250;2023-02-04T10:10:25;3.10;;;1.40;;
5961;SDS011;3007;50.770;0.250;2023-02-04T10:12:55;3.27;;;1.70;;
5961;SDS011;3007;50.770;0.250;2023-02-04T10:15:25;2.50;;;1.40;;
5961;SDS011;3007;50.770;0.250;2023-02-04T10:17:53;3.23;;;1.53;;
5961;SDS011;3007;50.770;0.250;2023-02-04T10:20:26;2.30;;;1.10;;
5961;SDS011;3007;50.770;0.250;2023-02-04T10:22:53;4.03;;;1.30;;
5961;SDS011;3007;50.770;0.250;2023-02-04T10:25:23;2.37;;;1.10;;
5961;SDS011;3007;50.770;0.250;2023-02-04T10:27:52;2.27;;;1.03;;
5961;SDS011;3007;50.770;0.250;2023-02-04T10:30:21;2.20;;;1.17;;
5961;SDS011;3007;50.770;0.250;2023-02-04T10:32:49;2.60;;;1.10;;
5961;SDS011;3007;50.770;0.250;2023-02-04T10:35:17;2.60;;;1.00;;
5961;SDS011;3007;50.770;0.250;2023-02-04T10:37:46;1.73;;;0.80;;
5961;SDS011;3007;50.770;0.250;2023-02-04T10:40:29;2.30;;;1.20;;
5961;SDS011;3007;50.770;0.250;2023-02-04T10:42:57;1.63;;;0.90;;
5961;SDS011;3007;50.770;0.250;2023-02-04T10:45:25;2.93;;;0.90;;
5961;SDS011;3007;50.770;0.250;2023-02-04T10:47:54;2.80;;;1.20;;
5961;SDS011;3007;50.770;0.250;2023-02-04T10:50:22;1.20;;;1.10;;
5961;SDS011;3007;50.770;0.250;2023-02-04T10:52:51;1.07;;;0.80;;
5961;SDS011;3007;50.770;0.250;2023-02-04T10:55:41;2.40;;;1.27;;
5961;SDS011;3007;50.770;0.250;2023-02-04T10:58:09;1.17;;;0.97;;
5961;SDS011;3007;50.770;0.250;2023-02-04T11:00:39;5.70;;;1.10;;
5961;SDS011;3007;50.770;0.250;2023-02-04T11:03:09;2.93;;;1.30;;
5961;SDS011;3007;50.770;0.250;2023-02-04T11:05:39;1.90;;;1.20;;
5961;SDS011;3007;50.770;0.250;2023-02-04T11:08:17;2.83;;;1.13;;
5961;SDS011;3007;50.770;0.250;2023-02-04T11:10:50;1.37;;;1.00;;
5961;SDS011;3007;50.770;0.250;2023-02-04T11:13:21;2.37;;;1.00;;
5961;SDS011;3007;50.770;0.250;2023-02-04T11:15:53;1.90;;;1.30;;
5961;SDS011;3007;50.770;0.250;2023-02-04T11:18:32;1.57;;;1.17;;
5961;SDS011;3007;50.770;0.250;2023-02-04T11:21:13;3.03;;;1.13;;
5961;SDS011;3007;50.770;0.250;2023-02-04T11:23:46;2.80;;;1.17;;
5961;SDS011;3007;50.770;0.250;2023-02-04T11:26:15;2.13;;;1.10;;
5961;SDS011;3007;50.770;0.250;2023-02-04T11:28:54;2.10;;;1.20;;
5961;SDS011;3007;50.770;0.250;2023-02-04T11:31:44;3.87;;;1.13;;
5961;SDS011;3007;50.770;0.250;2023-02-04T11:34:24;1.27;;;0.60;;
5961;SDS011;3007;50.770;0.250;2023-02-04T11:37:17;2.30;;;0.90;;
5961;SDS011;3007;50.770;0.250;2023-02-04T11:39:59;2.47;;;0.80;;
5961;SDS011;3007;50.770;0.250;2023-02-04T11:42:30;0.90;;;0.60;;
5961;SDS011;3007;50.770;0.250;2023-02-04T11:45:10;2.50;;;0.80;;
5961;SDS011;3007;50.770;0.250;2023-02-04T11:47:39;1.90;;;1.00;;
5961;SDS011;3007;50.770;0.250;2023-02-04T11:50:11;0.97;;;0.60;;
5961;SDS011;3007;50.770;0.250;2023-02-04T11:52:40;0.83;;;0.50;;
5961;SDS011;3007;50.770;0.250;2023-02-04T11:55:08;1.60;;;1.10;;
5961;SDS011;3007;50.770;0.250;2023-02-04T11:57:38;1.40;;;0.80;;
5961;SDS011;3007;50.770;0.250;2023-02-04T12:00:11;4.07;;;1.10;;
5961;SDS011;3007;50.770;0.250;2023-02-04T12:02:40;1.53;;;1.17;;
5961;SDS011;3007;50.770;0.250;2023-02-04T12:05:09;1.47;;;1.10;;
5961;SDS011;3007;50.770;0.250;2023-02-04T12:07:37;3.40;;;1.00;;
5961;SDS011;3007;50.770;0.250;2023-02-04T12:10:12;3.33;;;1.30;;
5961;SDS011;3007;50.770;0.250;2023-02-04T12:12:49;4.70;;;1.20;;
5961;SDS011;3007;50.770;0.250;2023-02-04T12:15:19;2.33;;;1.70;;
5961;SDS011;3007;50.770;0.250;2023-02-04T12:17:59;3.73;;;1.60;;
5961;SDS011;3007;50.770;0.250;2023-02-04T12:20:26;2.07;;;1.40;;
5961;SDS011;3007;50.770;0.250;2023-02-04T12:22:54;5.17;;;1.40;;
5961;SDS011;3007;50.770;0.250;2023-02-04T12:25:21;4.03;;;1.30;;
5961;SDS011;3007;50.770;0.250;2023-02-04T12:27:49;3.43;;;1.33;;
5961;SDS011;3007;50.770;0.250;2023-02-04T12:30:18;3.40;;;1.40;;
5961;SDS011;3007;50.770;0.250;2023-02-04T12:32:45;4.50;;;1.17;;
5961;SDS011;3007;50.770;0.250;2023-02-04T12:35:12;3.57;;;1.23;;
5961;SDS011;3007;50.770;0.250;2023-02-04T12:37:39;1.80;;;1.07;;
5961;SDS011;3007;50.770;0.250;2023-02-04T12:40:06;4.77;;;1.30;;
5961;SDS011;3007;50.770;0.250;2023-02-04T12:42:35;3.17;;;1.63;;
5961;SDS011;3007;50.770;0.250;2023-02-04T12:45:03;2.57;;;1.20;;
5961;SDS011;3007;50.770;0.250;2023-02-04T12:47:30;1.93;;;0.97;;
5961;SDS011;3007;50.770;0.250;2023-02-04T12:49:57;2.53;;;1.17;;
5961;SDS011;3007;50.770;0.250;2023-02-04T12:52:24;3.63;;;1.20;;
5961;SDS011;3007;50.770;0.250;2023-02-04T12:54:51;1.87;;;1.00;;
5961;SDS011;3007;50.770;0.250;2023-02-04T12:57:20;1.30;;;0.93;;
5961;SDS011;3007;50.770;0.250;2023-02-04T12:59:47;3.57;;;1.23;;
5961;SDS011;3007;50.770;0.250;2023-02-04T13:02:15;2.30;;;1.20;;
5961;SDS011;3007;50.770;0.250;2023-02-04T13:04:43;2.60;;;1.20;;
5961;SDS011;3007;50.770;0.250;2023-02-04T13:07:10;6.47;;;1.40;;
5961;SDS011;3007;50.770;0.250;2023-02-04T13:09:36;1.90;;;1.23;;
5961;SDS011;3007;50.770;0.250;2023-02-04T13:12:04;1.80;;;0.83;;
5961;SDS011;3007;50.770;0.250;2023-02-04T13:14:31;2.53;;;1.70;;
5961;SDS011;3007;50.770;0.250;2023-02-04T13:16:57;2.43;;;1.47;;
5961;SDS011;3007;50.770;0.250;2023-02-04T13:19:26;1.77;;;1.10;;
5961;SDS011;3007;50.770;0.250;2023-02-04T13:21:53;1.67;;;1.20;;
5961;SDS011;3007;50.770;0.250;2023-02-04T13:24:20;4.17;;;1.63;;
5961;SDS011;3007;50.770;0.250;2023-02-04T13:26:47;3.57;;;1.50;;
5961;SDS011;3007;50.770;0.250;2023-02-04T13:29:13;3.30;;;1.43;;
5961;SDS011;3007;50.770;0.250;2023-02-04T13:31:40;5.63;;;1.50;;
5961;SDS011;3007;50.770;0.250;2023-02-04T13:34:07;3.13;;;1.50;;
5961;SDS011;3007;50.770;0.250;2023-02-04T13:36:35;4.20;;;1.77;;
5961;SDS011;3007;50.770;0.250;2023-02-04T13:39:03;5.37;;;1.90;;
5961;SDS011;3007;50.770;0.250;2023-02-04T13:41:30;2.30;;;1.53;;
5961;SDS011;3007;50.770;0.250;2023-02-04T13:43:57;3.87;;;1.70;;
5961;SDS011;3007;50.770;0.250;2023-02-04T13:46:23;4.33;;;2.53;;
5961;SDS011;3007;50.770;0.250;2023-02-04T13:48:51;5.93;;;1.93;;
5961;SDS011;3007;50.770;0.250;2023-02-04T13:51:18;5.30;;;2.40;;
5961;SDS011;3007;50.770;0.250;2023-02-04T13:53:46;4.80;;;1.93;;
5961;SDS011;3007;50.770;0.250;2023-02-04T13:56:13;6.63;;;2.40;;
5961;SDS011;3007;50.770;0.250;2023-02-04T13:58:40;5.40;;;2.17;;
5961;SDS011;3007;50.770;0.250;2023-02-04T14:01:08;4.47;;;2.20;;
5961;SDS011;3007;50.770;0.250;2023-02-04T14:03:35;5.60;;;2.13;;
5961;SDS011;3007;50.770;0.250;2023-02-04T14:06:02;5.47;;;2.10;;
5961;SDS011;3007;50.770;0.250;2023-02-04T14:08:30;4.57;;;2.60;;
5961;SDS011;3007;50.770;0.250;2023-02-04T14:10:59;4.07;;;2.10;;
5961;SDS011;3007;50.770;0.250;2023-02-04T14:13:26;3.70;;;1.93;;
5961;SDS011;3007;50.770;0.250;2023-02-04T14:15:53;5.40;;;2.10;;
5961;SDS011;3007;50.770;0.250;2023-02-04T14:18:20;5.67;;;2.63;;
5961;SDS011;3007;50.770;0.250;2023-02-04T14:20:47;6.00;;;2.43;;
5961;SDS011;3007;50.770;0.250;2023-02-04T14:23:14;5.77;;;2.03;;
5961;SDS011;3007;50.770;0.250;2023-02-04T14:25:40;5.70;;;2.60;;
5961;SDS011;3007;50.770;0.250;2023-02-04T14:28:09;7.03;;;2.77;;
5961;SDS011;3007;50.770;0.250;2023-02-04T14:30:36;5.63;;;2.00;;
5961;SDS011;3007;50.770;0.250;2023-02-04T14:33:03;3.93;;;2.23;;
5961;SDS011;3007;50.770;0.250;2023-02-04T14:35:32;5.07;;;2.17;;
5961;SDS011;3007;50.770;0.250;2023-02-04T14:37:59;2.77;;;2.17;;
5961;SDS011;3007;50.770;0.250;2023-02-04T14:40:26;17.63;;;8.27;;
5961;SDS011;3007;50.770;0.250;2023-02-04T14:42:53;7.40;;;4.83;;
5961;SDS011;3007;50.770;0.250;2023-02-04T14:45:21;6.83;;;3.67;;
5961;SDS011;3007;50.770;0.250;2023-02-04T14:47:48;5.43;;;1.90;;
5961;SDS011;3007;50.770;0.250;2023-02-04T14:50:16;5.00;;;1.90;;
5961;SDS011;3007;50.770;0.250;2023-02-04T14:52:43;2.73;;;1.40;;
5961;SDS011;3007;50.770;0.250;2023-02-04T14:55:10;6.03;;;1.60;;
5961;SDS011;3007;50.770;0.250;2023-02-04T14:57:38;4.23;;;1.60;;
5961;SDS011;3007;50.770;0.250;2023-02-04T15:00:05;3.23;;;1.67;;
5961;SDS011;3007;50.770;0.250;2023-02-04T15:02:34;3.17;;;1.80;;
5961;SDS011;3007;50.770;0.250;2023-02-04T15:05:01;3.00;;;2.30;;
5961;SDS011;3007;50.770;0.250;2023-02-04T15:07:28;2.70;;;1.63;;
5961;SDS011;3007;50.770;0.250;2023-02-04T15:09:55;3.30;;;1.67;;
5961;SDS011;3007;50.770;0.250;2023-02-04T15:12:22;2.13;;;1.50;;
5961;SDS011;3007;50.770;0.250;2023-02-04T15:14:49;3.53;;;1.80;;
5961;SDS011;3007;50.770;0.250;2023-02-04T15:17:16;3.73;;;1.80;;
5961;SDS011;3007;50.770;0.250;2023-02-04T15:19:45;4.87;;;1.80;;
5961;SDS011;3007;50.770;0.250;2023-02-04T15:22:12;3.00;;;1.60;;
5961;SDS011;3007;50.770;0.250;2023-02-04T15:24:39;3.53;;;1.70;;